createdAt,value
2023-04-15T00:03:05.509Z,10.30
2023-04-15T00:08:08.334Z,10.20
2023-04-15T00:13:10.956Z,10.10
2023-04-15T00:18:14.013Z,10.10
2023-04-15T00:23:17.016Z,9.90
2023-04-15T00:28:19.756Z,9.90
2023-04-15T00:33:22.896Z,9.80
2023-04-15T00:38:25.523Z,9.50
2023-04-15T00:43:28.571Z,9.40
2023-04-15T00:48:31.894Z,9.30
2023-04-15T00:53:34.689Z,9.10
2023-04-15T00:58:37.913Z,9.30
2023-04-15T01:03:40.737Z,9.40
2023-04-15T01:08:44.114Z,9.20
2023-04-15T01:13:47.923Z,9.10
2023-04-15T01:18:50.757Z,9.30
2023-04-15T01:23:57.257Z,9.60
2023-04-15T01:29:00.311Z,9.70
2023-04-15T01:34:03.728Z,9.50
2023-04-15T01:39:24.655Z,9.40
2023-04-15T01:44:27.912Z,9.20
2023-04-15T01:49:32.413Z,9.30
2023-04-15T01:54:37.846Z,9.00
2023-04-15T01:59:42.459Z,8.90
2023-04-15T02:04:46.498Z,8.70
2023-04-15T02:09:50.471Z,8.80
2023-04-15T02:14:54.450Z,9.00
2023-04-15T02:19:59.904Z,8.80
2023-04-15T02:25:04.465Z,8.60
2023-04-15T02:30:09.574Z,8.50
2023-04-15T02:35:13.647Z,8.40
2023-04-15T02:40:17.941Z,8.50
2023-04-15T02:45:26.122Z,8.20
2023-04-15T02:50:30.139Z,8.30
2023-04-15T02:55:34.244Z,8.40
2023-04-15T03:00:38.473Z,8.20
2023-04-15T03:05:42.629Z,7.90
2023-04-15T03:10:46.539Z,7.80
2023-04-15T03:15:51.054Z,7.80
2023-04-15T03:20:55.056Z,7.70
2023-04-15T03:26:03.059Z,7.70
2023-04-15T03:31:08.420Z,7.70
2023-04-15T03:36:12.385Z,7.70
2023-04-15T03:41:16.452Z,7.50
2023-04-15T03:46:20.642Z,7.50
2023-04-15T03:51:24.536Z,7.50
2023-04-15T03:56:28.557Z,7.50
2023-04-15T04:01:32.584Z,7.40
2023-04-15T04:06:36.558Z,7.20
2023-04-15T04:11:40.445Z,7.10
2023-04-15T04:16:45.092Z,7.20
2023-04-15T04:21:48.992Z,7.10
2023-04-15T04:26:53.119Z,6.90
2023-04-15T04:31:57.079Z,6.90
2023-04-15T04:37:01.090Z,6.90
2023-04-15T04:42:04.937Z,7.10
2023-04-15T04:47:08.849Z,7.20
2023-04-15T04:52:13.182Z,7.30
2023-04-15T04:57:17.341Z,7.50
2023-04-15T05:02:21.875Z,7.60
2023-04-15T05:07:26.024Z,7.80
2023-04-15T05:12:29.925Z,8.10
2023-04-15T05:17:35.596Z,8.40
2023-04-15T05:22:39.680Z,8.60
2023-04-15T05:27:43.747Z,8.70
2023-04-15T05:32:47.822Z,9.00
2023-04-15T05:37:51.804Z,9.30
2023-04-15T05:42:55.785Z,9.80
2023-04-15T05:47:59.772Z,10.50
2023-04-15T05:53:03.825Z,10.60
2023-04-15T05:58:08.291Z,10.90
2023-04-15T06:03:12.901Z,11.40
2023-04-15T06:08:17.388Z,11.50
2023-04-15T06:13:21.369Z,11.80
2023-04-15T06:18:26.069Z,12.00
2023-04-15T06:23:30.341Z,12.20
2023-04-15T06:28:34.414Z,12.50
2023-04-15T06:33:38.263Z,12.50
2023-04-15T06:38:44.479Z,12.60
2023-04-15T06:43:48.536Z,12.50
2023-04-15T06:48:52.779Z,12.70
2023-04-15T06:53:57.228Z,13.00
2023-04-15T06:59:01.285Z,13.10
2023-04-15T07:04:05.643Z,13.20
2023-04-15T07:09:10.146Z,13.60
2023-04-15T07:14:14.221Z,13.70
2023-04-15T07:19:18.145Z,13.80
2023-04-15T07:24:23.600Z,13.70
2023-04-15T07:29:27.729Z,13.60
2023-04-15T07:34:32.684Z,13.70
2023-04-15T07:39:37.367Z,13.90
2023-04-15T07:44:41.473Z,14.20
2023-04-15T07:49:45.690Z,14.20
2023-04-15T07:54:49.606Z,14.40
2023-04-15T07:59:53.535Z,14.30
2023-04-15T08:04:58.161Z,13.90
2023-04-15T08:10:02.062Z,14.30
2023-04-15T08:15:08.522Z,14.70
2023-04-15T08:20:13.956Z,14.70
2023-04-15T08:25:17.995Z,15.40
2023-04-15T08:30:22.187Z,15.60
2023-04-15T08:35:26.326Z,15.90
2023-04-15T08:40:45.891Z,16.20
2023-04-15T08:45:52.049Z,16.40
2023-04-15T08:50:56.190Z,17.00
2023-04-15T08:56:05.556Z,17.70
2023-04-15T09:01:09.863Z,18.70
2023-04-15T09:06:15.170Z,20.00
2023-04-15T09:11:20.305Z,18.00
2023-04-15T09:16:24.829Z,17.90
2023-04-15T09:21:29.906Z,18.60
2023-04-15T09:26:36.324Z,17.70
2023-04-15T09:31:41.524Z,18.10
2023-04-15T09:36:50.981Z,18.00
2023-04-15T09:42:08.447Z,17.70
2023-04-15T09:47:28.841Z,17.70
2023-04-15T09:52:33.061Z,18.80
2023-04-15T09:57:38.313Z,18.00
2023-04-15T10:02:43.169Z,19.10
2023-04-15T10:07:47.213Z,19.70
2023-04-15T10:12:54.669Z,18.90
2023-04-15T10:18:01.818Z,17.90
2023-04-15T10:23:08.343Z,17.90
2023-04-15T10:28:16.099Z,17.50
2023-04-15T10:33:24.912Z,16.20
2023-04-15T10:38:37.714Z,15.80
2023-04-15T10:43:58.004Z,15.60
2023-04-15T10:49:17.351Z,15.60
2023-04-15T10:54:27.411Z,15.70
2023-04-15T10:59:38.241Z,15.60
2023-04-15T11:04:59.120Z,15.90
2023-04-15T11:10:03.628Z,16.00
2023-04-15T11:15:35.640Z,16.50
2023-04-15T11:20:41.441Z,18.20
2023-04-15T11:25:46.297Z,18.30
2023-04-15T11:30:50.656Z,18.60
2023-04-15T11:35:55.517Z,18.40
2023-04-15T11:40:59.650Z,18.60
2023-04-15T11:46:04.924Z,18.30
2023-04-15T11:51:09.244Z,17.50
2023-04-15T11:56:17.682Z,17.40
2023-04-15T12:01:20.664Z,17.90
2023-04-15T12:06:24.835Z,18.30
2023-04-15T12:11:31.745Z,17.20
2023-04-15T12:16:49.358Z,16.80
2023-04-15T12:22:00.042Z,16.80
2023-04-15T12:27:13.503Z,17.70
2023-04-15T12:32:19.997Z,17.50
2023-04-15T12:37:23.006Z,17.10
2023-04-15T12:42:25.939Z,17.50
2023-04-15T12:47:28.783Z,17.80
2023-04-15T12:52:31.538Z,17.50
2023-04-15T12:57:34.318Z,18.20
2023-04-15T13:02:37.416Z,17.80
2023-04-15T13:07:40.238Z,18.00
2023-04-15T13:12:43.186Z,18.90
2023-04-15T13:17:46.074Z,18.40
2023-04-15T13:22:48.963Z,20.10
2023-04-15T13:27:51.780Z,18.60
2023-04-15T13:32:54.775Z,18.40
2023-04-15T13:37:57.584Z,18.70
2023-04-15T13:43:00.529Z,18.20
2023-04-15T13:48:03.425Z,19.70
2023-04-15T13:53:06.426Z,19.50
2023-04-15T13:58:09.999Z,19.30
2023-04-15T14:03:13.025Z,20.10
2023-04-15T14:08:16.009Z,20.40
2023-04-15T14:13:19.844Z,18.50
2023-04-15T14:18:22.866Z,18.90
2023-04-15T14:23:25.576Z,19.90
2023-04-15T14:28:28.340Z,20.10
2023-04-15T14:33:31.105Z,19.70
2023-04-15T14:38:38.890Z,19.70
2023-04-15T14:43:41.781Z,19.90
2023-04-15T14:48:44.561Z,19.70
2023-04-15T14:53:47.278Z,18.70
2023-04-15T14:58:50.684Z,18.80
2023-04-15T15:03:53.665Z,17.00
2023-04-15T15:08:56.434Z,16.50
2023-04-15T15:13:59.226Z,15.50
2023-04-15T15:19:02.092Z,15.20
2023-04-15T15:24:05.565Z,15.10
2023-04-15T15:29:08.408Z,15.10
2023-04-15T15:34:11.184Z,15.10
2023-04-15T15:39:14.009Z,15.20
2023-04-15T15:44:16.842Z,15.10
2023-04-15T15:49:20.228Z,13.70
2023-04-15T15:54:22.993Z,12.80
2023-04-15T15:59:26.013Z,12.50
2023-04-15T16:04:29.374Z,12.40
2023-04-15T16:09:32.555Z,12.40
2023-04-15T16:14:35.357Z,12.30
2023-04-15T16:19:38.188Z,12.40
2023-04-15T16:24:41.092Z,12.00
2023-04-15T16:29:43.813Z,11.90
2023-04-15T16:34:46.552Z,12.00
2023-04-15T16:39:49.308Z,11.80
2023-04-15T16:44:52.046Z,11.30
2023-04-15T16:49:54.712Z,11.20
2023-04-15T16:54:57.580Z,11.10
2023-04-15T17:00:00.566Z,10.50
2023-04-15T17:05:03.880Z,10.30
2023-04-15T17:10:07.220Z,10.30
2023-04-15T17:15:10.802Z,10.20
2023-04-15T17:20:18.790Z,10.10
2023-04-15T17:25:22.238Z,10.00
2023-04-15T17:30:27.320Z,9.70
2023-04-15T17:35:50.171Z,9.40
2023-04-15T17:41:13.294Z,9.40
2023-04-15T17:46:36.142Z,9.30
2023-04-15T17:51:58.738Z,9.10
2023-04-15T17:57:21.439Z,9.00
2023-04-15T18:02:44.248Z,8.90
2023-04-15T18:08:07.501Z,8.80
2023-04-15T18:13:30.208Z,8.70
2023-04-15T18:18:53.661Z,8.60
2023-04-15T18:23:56.280Z,8.50
2023-04-15T18:28:59.086Z,8.50
2023-04-15T18:34:05.352Z,8.30
2023-04-15T18:39:08.645Z,8.30
2023-04-15T18:44:11.398Z,8.00
2023-04-15T18:49:14.146Z,7.70
2023-04-15T18:54:16.972Z,7.60
2023-04-15T18:59:29.648Z,7.70
2023-04-15T19:04:33.950Z,7.60
2023-04-15T19:09:37.047Z,7.50
2023-04-15T19:14:39.750Z,7.30
2023-04-15T19:19:43.096Z,7.40
2023-04-15T19:24:46.622Z,7.30
2023-04-15T19:29:49.693Z,7.00
2023-04-15T19:34:52.409Z,6.90
2023-04-15T19:39:56.392Z,6.60
2023-04-15T19:44:59.377Z,6.60
2023-04-15T19:50:02.243Z,6.70
2023-04-15T19:55:05.518Z,6.50
2023-04-15T20:00:09.682Z,6.40
2023-04-15T20:05:12.922Z,6.20
2023-04-15T20:10:15.559Z,6.00
2023-04-15T20:15:18.366Z,5.90
2023-04-15T20:20:22.416Z,5.90
2023-04-15T20:25:25.247Z,6.00
2023-04-15T20:30:29.381Z,6.00
2023-04-15T20:35:32.321Z,6.00
2023-04-15T20:40:35.184Z,5.90
2023-04-15T20:45:38.854Z,6.00
2023-04-15T20:50:41.995Z,6.00
2023-04-15T20:55:44.996Z,6.00
2023-04-15T21:00:48.132Z,5.90
2023-04-15T21:05:51.124Z,5.90
2023-04-15T21:10:53.728Z,6.00
2023-04-15T21:15:56.660Z,6.00
2023-04-15T21:21:01.195Z,6.00
2023-04-15T21:26:04.141Z,6.00
2023-04-15T21:31:07.566Z,6.00
2023-04-15T21:36:10.436Z,5.90
2023-04-15T21:41:13.286Z,5.90
2023-04-15T21:46:22.223Z,5.70
2023-04-15T21:51:26.978Z,5.70
2023-04-15T21:56:29.724Z,5.70
2023-04-15T22:01:32.604Z,5.70
2023-04-15T22:06:35.447Z,5.70
2023-04-15T22:11:39.444Z,5.70
2023-04-15T22:16:42.238Z,5.60
2023-04-15T22:21:44.988Z,5.80
2023-04-15T22:26:47.744Z,5.70
2023-04-15T22:31:51.138Z,5.50
2023-04-15T22:36:54.200Z,5.50
2023-04-15T22:41:57.208Z,5.40
2023-04-15T22:46:59.912Z,5.60
2023-04-15T22:52:02.657Z,5.30
2023-04-15T22:57:05.432Z,5.40
2023-04-15T23:02:08.328Z,5.30
2023-04-15T23:07:11.767Z,5.20
2023-04-15T23:12:14.733Z,5.20
2023-04-15T23:17:17.414Z,5.20
2023-04-15T23:22:20.262Z,5.00
2023-04-15T23:27:23.126Z,5.00
2023-04-15T23:32:27.257Z,5.10
2023-04-15T23:37:31.850Z,5.20
2023-04-15T23:42:34.811Z,5.20
2023-04-15T23:47:38.616Z,5.10
2023-04-15T23:52:41.196Z,5.00
2023-04-15T23:57:43.873Z,5.00
